createdAt,value
2023-01-30T00:01:40.176Z,18.10
2023-01-30T00:04:13.890Z,15.57
2023-01-30T00:06:47.440Z,16.33
2023-01-30T00:09:19.267Z,17.63
2023-01-30T00:11:51.145Z,13.85
2023-01-30T00:14:23.001Z,13.93
2023-01-30T00:16:54.872Z,16.27
2023-01-30T00:19:26.704Z,14.95
2023-01-30T00:21:58.524Z,15.30
2023-01-30T00:24:30.634Z,17.50
2023-01-30T00:27:02.524Z,16.73
2023-01-30T00:29:34.394Z,17.23
2023-01-30T00:32:07.235Z,16.88
2023-01-30T00:34:39.116Z,16.48
2023-01-30T00:37:10.959Z,12.63
2023-01-30T00:39:42.845Z,14.48
2023-01-30T00:42:33.075Z,15.70
2023-01-30T00:45:23.876Z,14.20
2023-01-30T00:47:56.044Z,14.17
2023-01-30T00:50:42.466Z,14.98
2023-01-30T00:53:17.339Z,14.40
2023-01-30T00:55:51.872Z,13.40
2023-01-30T00:58:24.599Z,14.95
2023-01-30T01:00:56.540Z,14.05
2023-01-30T01:03:28.564Z,12.30
2023-01-30T01:06:00.840Z,15.48
2023-01-30T01:08:32.787Z,15.50
2023-01-30T01:11:04.820Z,14.85
2023-01-30T01:13:36.758Z,16.67
2023-01-30T01:16:08.835Z,16.85
2023-01-30T01:18:40.768Z,16.88
2023-01-30T01:21:13.486Z,13.30
2023-01-30T01:23:49.257Z,13.65
2023-01-30T01:26:21.424Z,13.38
2023-01-30T01:28:57.519Z,14.10
2023-01-30T01:31:29.561Z,13.65
2023-01-30T01:34:01.500Z,13.30
2023-01-30T01:36:52.886Z,17.30
2023-01-30T01:42:18.489Z,13.43
2023-01-30T01:45:15.443Z,14.32
2023-01-30T01:47:58.931Z,13.15
2023-01-30T01:51:03.852Z,14.18
2023-01-30T01:53:42.375Z,14.25
2023-01-30T01:56:17.063Z,16.55
2023-01-30T01:58:55.457Z,12.63
2023-01-30T02:01:28.854Z,14.13
2023-01-30T02:04:04.559Z,12.02
2023-01-30T02:06:39.791Z,12.18
2023-01-30T02:09:11.968Z,12.57
2023-01-30T02:11:58.113Z,12.38
2023-01-30T02:14:33.245Z,14.20
2023-01-30T02:17:05.207Z,16.67
2023-01-30T02:19:46.970Z,16.02
2023-01-30T02:22:54.346Z,11.20
2023-01-30T02:25:41.447Z,12.70
2023-01-30T02:28:32.043Z,12.98
2023-01-30T02:31:39.332Z,11.88
2023-01-30T02:34:17.568Z,12.40
2023-01-30T02:37:24.659Z,12.85
2023-01-30T02:40:25.974Z,13.05
2023-01-30T02:43:17.928Z,13.00
2023-01-30T02:46:08.867Z,12.07
2023-01-30T02:49:00.889Z,14.50
2023-01-30T02:51:37.013Z,13.02
2023-01-30T02:54:12.498Z,15.40
2023-01-30T02:56:53.704Z,14.18
2023-01-30T02:59:32.173Z,14.43
2023-01-30T03:02:25.713Z,14.02
2023-01-30T03:05:13.223Z,12.55
2023-01-30T03:08:04.768Z,18.25
2023-01-30T03:10:57.061Z,14.25
2023-01-30T03:13:52.277Z,11.30
2023-01-30T03:16:40.125Z,17.45
2023-01-30T03:19:13.686Z,10.43
2023-01-30T03:21:45.726Z,15.88
2023-01-30T03:24:18.311Z,11.93
2023-01-30T03:26:58.477Z,13.45
2023-01-30T03:29:31.154Z,9.73
2023-01-30T03:32:03.146Z,12.77
2023-01-30T03:34:35.319Z,13.15
2023-01-30T03:37:07.302Z,9.82
2023-01-30T03:39:40.923Z,10.95
2023-01-30T03:42:13.175Z,12.45
2023-01-30T03:44:45.087Z,12.82
2023-01-30T03:47:17.004Z,9.90
2023-01-30T03:49:48.916Z,12.52
2023-01-30T03:52:20.996Z,13.63
2023-01-30T03:54:52.930Z,13.38
2023-01-30T03:57:25.199Z,12.50
2023-01-30T03:59:57.184Z,14.30
2023-01-30T04:02:29.098Z,12.20
2023-01-30T04:05:03.838Z,13.32
2023-01-30T04:07:35.838Z,14.40
2023-01-30T04:10:08.277Z,13.75
2023-01-30T04:12:40.186Z,15.77
2023-01-30T04:15:12.521Z,13.57
2023-01-30T04:17:53.154Z,11.30
2023-01-30T04:20:54.049Z,10.55
2023-01-30T04:23:33.635Z,12.43
2023-01-30T04:26:06.548Z,16.95
2023-01-30T04:28:42.328Z,12.55
2023-01-30T04:31:14.550Z,13.15
2023-01-30T04:34:09.781Z,13.45
2023-01-30T04:36:41.866Z,12.80
2023-01-30T04:39:14.409Z,12.65
2023-01-30T04:41:46.366Z,13.35
2023-01-30T04:44:18.215Z,14.57
2023-01-30T04:46:54.406Z,13.70
2023-01-30T04:49:27.141Z,13.57
2023-01-30T04:51:59.627Z,15.23
2023-01-30T04:54:31.784Z,14.15
2023-01-30T04:57:04.397Z,16.88
2023-01-30T04:59:36.444Z,14.50
2023-01-30T05:02:13.438Z,14.45
2023-01-30T05:04:45.324Z,15.45
2023-01-30T05:07:17.247Z,15.90
2023-01-30T05:09:49.178Z,17.23
2023-01-30T05:12:20.979Z,17.00
2023-01-30T05:14:52.841Z,14.40
2023-01-30T05:17:24.692Z,15.40
2023-01-30T05:19:56.625Z,14.38
2023-01-30T05:22:28.503Z,14.20
2023-01-30T05:25:00.392Z,15.90
2023-01-30T05:27:32.298Z,13.80
2023-01-30T05:30:05.995Z,17.67
2023-01-30T05:32:37.913Z,15.63
2023-01-30T05:35:10.224Z,15.27
2023-01-30T05:37:42.090Z,14.70
2023-01-30T05:40:14.323Z,52.03
2023-01-30T05:42:46.257Z,32.83
2023-01-30T05:45:18.390Z,27.58
2023-01-30T05:47:53.595Z,21.67
2023-01-30T05:50:26.843Z,18.08
2023-01-30T05:52:58.786Z,15.25
2023-01-30T05:55:30.716Z,25.63
2023-01-30T05:58:02.543Z,13.95
2023-01-30T06:00:34.378Z,20.48
2023-01-30T06:03:06.264Z,16.60
2023-01-30T06:05:38.489Z,14.43
2023-01-30T06:08:10.378Z,19.27
2023-01-30T06:10:42.303Z,15.48
2023-01-30T06:13:14.225Z,20.00
2023-01-30T06:15:46.319Z,18.25
2023-01-30T06:18:18.286Z,20.65
2023-01-30T06:20:51.243Z,17.75
2023-01-30T06:23:27.070Z,18.67
2023-01-30T06:25:59.004Z,18.08
2023-01-30T06:28:30.837Z,21.23
2023-01-30T06:31:02.892Z,24.42
2023-01-30T06:33:35.360Z,23.48
2023-01-30T06:36:07.706Z,24.33
2023-01-30T06:38:39.625Z,23.70
2023-01-30T06:41:11.544Z,20.90
2023-01-30T06:43:43.418Z,25.23
2023-01-30T06:46:15.346Z,28.30
2023-01-30T06:48:47.637Z,25.08
2023-01-30T06:51:19.544Z,24.52
2023-01-30T06:53:53.326Z,25.73
2023-01-30T06:56:25.247Z,31.13
2023-01-30T06:58:57.200Z,26.33
2023-01-30T07:01:29.192Z,23.95
2023-01-30T07:04:01.087Z,63.95
2023-01-30T07:06:33.092Z,27.27
2023-01-30T07:09:05.036Z,26.67
2023-01-30T07:11:36.885Z,23.13
2023-01-30T07:14:09.909Z,21.73
2023-01-30T07:16:41.823Z,17.95
2023-01-30T07:19:13.729Z,25.42
2023-01-30T07:21:45.570Z,22.77
2023-01-30T07:24:17.462Z,21.50
2023-01-30T07:26:49.440Z,26.45
2023-01-30T07:29:21.407Z,24.02
2023-01-30T07:31:53.811Z,17.33
2023-01-30T07:34:25.698Z,23.10
2023-01-30T07:36:57.689Z,19.10
2023-01-30T07:39:29.670Z,22.33
2023-01-30T07:42:02.347Z,19.05
2023-01-30T07:44:34.343Z,22.83
2023-01-30T07:47:06.383Z,25.60
2023-01-30T07:49:38.365Z,22.95
2023-01-30T07:52:10.275Z,20.55
2023-01-30T07:54:42.234Z,25.02
2023-01-30T07:57:16.202Z,21.40
2023-01-30T07:59:48.097Z,27.13
2023-01-30T08:02:19.931Z,19.92
2023-01-30T08:04:51.955Z,24.65
2023-01-30T08:07:23.945Z,18.35
2023-01-30T08:09:55.893Z,29.75
2023-01-30T08:12:27.845Z,25.85
2023-01-30T08:14:59.706Z,34.70
2023-01-30T08:17:31.598Z,38.13
2023-01-30T08:20:04.727Z,20.38
2023-01-30T08:22:36.662Z,24.17
2023-01-30T08:25:08.856Z,22.90
2023-01-30T08:27:40.724Z,25.90
2023-01-30T08:30:12.894Z,21.27
2023-01-30T08:32:44.918Z,23.45
2023-01-30T08:35:16.839Z,24.67
2023-01-30T08:37:48.964Z,23.30
2023-01-30T08:40:21.163Z,25.63
2023-01-30T08:42:53.147Z,23.23
2023-01-30T08:45:25.014Z,21.75
2023-01-30T08:48:00.726Z,22.33
2023-01-30T08:50:33.516Z,24.00
2023-01-30T08:53:07.278Z,20.38
2023-01-30T08:55:39.140Z,19.95
2023-01-30T08:58:11.532Z,26.52
2023-01-30T09:00:45.583Z,28.85
2023-01-30T09:03:18.820Z,26.95
2023-01-30T09:05:56.974Z,25.95
2023-01-30T09:08:29.022Z,26.15
2023-01-30T09:11:03.551Z,23.58
2023-01-30T09:13:35.457Z,25.20
2023-01-30T09:16:07.436Z,24.67
2023-01-30T09:18:44.031Z,24.83
2023-01-30T09:21:16.098Z,23.98
2023-01-30T09:23:47.932Z,18.98
2023-01-30T09:26:19.798Z,19.65
2023-01-30T09:28:51.776Z,21.15
2023-01-30T09:31:24.011Z,26.05
2023-01-30T09:33:55.853Z,19.50
2023-01-30T09:36:28.882Z,18.60
2023-01-30T09:39:00.985Z,20.40
2023-01-30T09:41:45.650Z,23.08
2023-01-30T09:44:35.383Z,21.73
2023-01-30T09:47:11.868Z,17.25
2023-01-30T09:49:52.338Z,14.77
2023-01-30T09:52:38.000Z,17.95
2023-01-30T09:55:30.184Z,20.70
2023-01-30T09:58:02.406Z,23.90
2023-01-30T10:00:42.265Z,24.83
2023-01-30T10:03:41.052Z,21.88
2023-01-30T10:06:14.728Z,18.45
2023-01-30T10:09:20.067Z,22.13
2023-01-30T10:12:00.431Z,19.73
2023-01-30T10:14:36.234Z,21.13
2023-01-30T10:17:39.480Z,18.45
2023-01-30T10:20:21.017Z,19.88
2023-01-30T10:23:04.867Z,19.95
2023-01-30T10:25:45.993Z,24.55
2023-01-30T10:28:32.953Z,22.85
2023-01-30T10:31:10.689Z,23.98
2023-01-30T10:34:03.162Z,30.15
2023-01-30T10:36:53.384Z,23.77
2023-01-30T10:39:38.759Z,26.35
2023-01-30T10:42:19.742Z,25.45
2023-01-30T10:44:59.093Z,26.27
2023-01-30T10:47:47.153Z,28.15
2023-01-30T10:50:29.546Z,27.33
2023-01-30T10:53:11.702Z,20.55
2023-01-30T10:56:02.835Z,20.27
2023-01-30T10:58:46.890Z,26.50
2023-01-30T11:01:39.823Z,22.90
2023-01-30T11:04:25.271Z,24.60
2023-01-30T11:06:58.904Z,28.30
2023-01-30T11:09:45.255Z,29.63
2023-01-30T11:12:20.147Z,31.25
2023-01-30T11:14:59.702Z,30.42
2023-01-30T11:17:38.880Z,28.48
2023-01-30T11:20:19.286Z,29.20
2023-01-30T11:23:26.597Z,31.00
2023-01-30T11:26:10.372Z,29.08
2023-01-30T11:28:48.677Z,31.02
2023-01-30T11:31:40.775Z,30.15
2023-01-30T11:34:16.627Z,34.08
2023-01-30T11:36:51.157Z,37.97
2023-01-30T11:39:28.363Z,37.30
2023-01-30T11:42:04.610Z,43.72
2023-01-30T11:44:38.173Z,42.38
2023-01-30T11:47:27.242Z,37.75
2023-01-30T11:50:03.607Z,39.70
2023-01-30T11:52:38.780Z,44.87
2023-01-30T11:55:16.430Z,44.92
2023-01-30T11:57:54.458Z,41.28
2023-01-30T12:00:39.838Z,40.50
2023-01-30T12:03:15.748Z,42.75
2023-01-30T12:05:48.735Z,43.78
2023-01-30T12:08:31.190Z,48.58
2023-01-30T12:11:47.137Z,46.15
2023-01-30T12:14:27.844Z,43.80
2023-01-30T12:17:22.257Z,45.30
2023-01-30T12:20:01.693Z,41.65
2023-01-30T12:22:51.776Z,44.53
2023-01-30T12:25:27.180Z,46.13
2023-01-30T12:28:25.902Z,46.78
2023-01-30T12:31:08.656Z,42.30
2023-01-30T12:33:40.995Z,46.28
2023-01-30T12:36:24.777Z,48.63
2023-01-30T12:38:56.851Z,45.33
2023-01-30T12:41:45.253Z,47.00
2023-01-30T12:44:25.712Z,46.70
2023-01-30T12:47:18.767Z,53.22
2023-01-30T12:50:12.217Z,50.08
2023-01-30T12:53:24.347Z,47.10
2023-01-30T12:56:14.792Z,43.38
2023-01-30T12:59:12.024Z,46.63
2023-01-30T13:02:10.213Z,46.83
2023-01-30T13:05:03.927Z,46.40
2023-01-30T13:08:06.143Z,47.25
2023-01-30T13:10:51.881Z,48.42
2023-01-30T13:14:11.732Z,45.38
2023-01-30T13:17:02.454Z,45.28
2023-01-30T13:19:52.778Z,47.38
2023-01-30T13:22:33.911Z,42.75
2023-01-30T13:27:50.791Z,44.92
2023-01-30T13:30:25.568Z,45.17
2023-01-30T13:33:01.464Z,33.63
2023-01-30T13:35:36.887Z,36.17
2023-01-30T13:38:14.489Z,34.15
2023-01-30T13:40:51.264Z,33.72
2023-01-30T13:43:41.001Z,38.80
2023-01-30T13:46:23.646Z,35.30
2023-01-30T13:49:30.772Z,37.67
2023-01-30T13:52:15.658Z,37.47
2023-01-30T13:54:59.595Z,34.00
2023-01-30T13:57:31.388Z,37.30
2023-01-30T14:00:32.546Z,35.28
2023-01-30T14:03:07.237Z,39.13
2023-01-30T14:06:03.095Z,33.10
2023-01-30T14:08:47.138Z,36.60
2023-01-30T14:11:55.812Z,34.47
2023-01-30T14:14:31.005Z,36.35
2023-01-30T14:17:16.562Z,33.70
2023-01-30T14:20:20.042Z,36.50
2023-01-30T14:22:55.867Z,36.75
2023-01-30T14:25:30.508Z,38.05
2023-01-30T14:28:05.089Z,28.92
2023-01-30T14:30:47.631Z,30.90
2023-01-30T14:33:19.492Z,33.08
2023-01-30T14:35:54.112Z,33.05
2023-01-30T14:38:27.781Z,33.42
2023-01-30T14:41:02.246Z,33.38
2023-01-30T14:43:43.249Z,35.25
2023-01-30T14:46:18.375Z,32.00
2023-01-30T14:49:10.972Z,34.90
2023-01-30T14:51:45.734Z,34.85
2023-01-30T14:54:17.747Z,37.40
2023-01-30T14:57:05.955Z,35.33
2023-01-30T15:00:15.390Z,35.15
2023-01-30T15:03:02.278Z,36.88
2023-01-30T15:05:45.035Z,34.08
2023-01-30T15:08:24.802Z,35.60
2023-01-30T15:11:05.574Z,37.53
2023-01-30T15:14:16.146Z,34.90
2023-01-30T15:17:23.098Z,40.13
2023-01-30T15:20:00.856Z,38.10
2023-01-30T15:23:07.482Z,38.38
2023-01-30T15:25:51.647Z,38.72
2023-01-30T15:29:02.298Z,40.15
2023-01-30T15:31:37.826Z,34.33
2023-01-30T15:34:20.437Z,44.53
2023-01-30T15:36:52.439Z,44.47
2023-01-30T15:39:28.071Z,47.00
2023-01-30T15:42:07.110Z,50.13
2023-01-30T15:44:48.622Z,46.25
2023-01-30T15:47:43.404Z,47.67
2023-01-30T15:50:15.584Z,44.53
2023-01-30T15:52:50.275Z,45.83
2023-01-30T15:55:33.832Z,46.08
2023-01-30T15:58:11.035Z,46.78
2023-01-30T16:01:07.960Z,50.67
2023-01-30T16:03:42.742Z,47.92
2023-01-30T16:06:34.791Z,47.95
2023-01-30T16:09:25.883Z,53.00
2023-01-30T16:12:00.099Z,51.13
2023-01-30T16:14:36.134Z,48.38
2023-01-30T16:17:13.021Z,46.22
2023-01-30T16:19:45.116Z,51.75
2023-01-30T16:22:24.398Z,49.47
2023-01-30T16:25:02.512Z,44.67
2023-01-30T16:27:40.750Z,50.70
2023-01-30T16:30:15.956Z,49.58
2023-01-30T16:32:48.328Z,47.05
2023-01-30T16:35:28.745Z,54.13
2023-01-30T16:38:02.345Z,53.35
2023-01-30T16:40:46.677Z,109.47
2023-01-30T16:43:44.434Z,65.78
2023-01-30T16:46:51.181Z,62.50
2023-01-30T16:49:27.523Z,56.30
2023-01-30T16:52:14.717Z,57.88
2023-01-30T16:54:56.210Z,57.10
2023-01-30T16:57:43.478Z,51.40
2023-01-30T17:00:29.024Z,53.47
2023-01-30T17:03:04.240Z,53.13
2023-01-30T17:05:41.222Z,50.28
2023-01-30T17:08:31.450Z,56.25
2023-01-30T17:11:03.890Z,62.45
2023-01-30T17:13:44.077Z,68.65
2023-01-30T17:16:35.041Z,67.57
2023-01-30T17:19:07.195Z,64.25
2023-01-30T17:21:49.448Z,62.22
2023-01-30T17:24:22.448Z,59.97
2023-01-30T17:27:02.743Z,58.88
2023-01-30T17:29:43.483Z,59.17
2023-01-30T17:32:16.542Z,55.78
2023-01-30T17:34:51.011Z,56.05
2023-01-30T17:37:23.135Z,55.53
2023-01-30T17:39:56.143Z,63.55
2023-01-30T17:42:28.107Z,66.90
2023-01-30T17:45:00.020Z,58.97
2023-01-30T17:47:31.985Z,66.35
2023-01-30T17:50:04.667Z,71.13
2023-01-30T17:52:36.605Z,61.90
2023-01-30T17:55:13.844Z,61.60
2023-01-30T17:57:48.687Z,61.20
2023-01-30T18:00:24.755Z,65.63
2023-01-30T18:02:56.588Z,60.40
2023-01-30T18:05:31.765Z,57.45
2023-01-30T18:08:06.243Z,65.00
2023-01-30T18:10:43.474Z,60.47
2023-01-30T18:13:16.846Z,62.03
2023-01-30T18:16:02.407Z,55.55
2023-01-30T18:18:37.659Z,62.42
2023-01-30T18:21:15.777Z,47.20
2023-01-30T18:23:48.280Z,57.90
2023-01-30T18:26:21.780Z,61.78
2023-01-30T18:28:54.292Z,66.53
2023-01-30T18:31:30.344Z,54.42
2023-01-30T18:34:02.480Z,57.30
2023-01-30T18:36:35.945Z,63.35
2023-01-30T18:39:07.907Z,61.70
2023-01-30T18:41:39.796Z,59.17
2023-01-30T18:44:11.744Z,68.55
2023-01-30T18:46:43.781Z,67.32
2023-01-30T18:49:15.774Z,67.55
2023-01-30T18:51:47.751Z,58.50
2023-01-30T18:54:19.708Z,64.13
2023-01-30T18:56:51.856Z,62.58
2023-01-30T18:59:29.351Z,61.00
2023-01-30T19:02:01.343Z,58.53
2023-01-30T19:04:33.843Z,56.33
2023-01-30T19:07:07.586Z,58.53
2023-01-30T19:09:40.572Z,56.40
2023-01-30T19:12:31.240Z,59.13
2023-01-30T19:15:03.607Z,62.15
2023-01-30T19:17:35.582Z,57.20
2023-01-30T19:20:11.004Z,58.75
2023-01-30T19:22:43.311Z,56.88
2023-01-30T19:25:15.381Z,61.38
2023-01-30T19:27:50.235Z,63.10
2023-01-30T19:30:22.371Z,59.33
2023-01-30T19:32:58.657Z,57.03
2023-01-30T19:35:30.601Z,57.28
2023-01-30T19:38:02.606Z,54.53
2023-01-30T19:40:50.239Z,62.15
2023-01-30T19:43:22.123Z,55.65
2023-01-30T19:46:00.985Z,60.72
2023-01-30T19:48:36.179Z,57.03
2023-01-30T19:51:13.709Z,58.80
2023-01-30T19:53:47.212Z,56.25
2023-01-30T19:56:22.023Z,54.47
2023-01-30T19:58:58.733Z,58.88
2023-01-30T20:01:35.444Z,59.53
2023-01-30T20:04:10.460Z,56.25
2023-01-30T20:06:46.378Z,63.17
2023-01-30T20:09:19.197Z,82.40
2023-01-30T20:11:51.325Z,64.95
2023-01-30T20:14:23.231Z,58.60
2023-01-30T20:16:55.043Z,58.63
2023-01-30T20:19:27.129Z,68.53
2023-01-30T20:21:59.676Z,62.33
2023-01-30T20:24:31.552Z,98.38
2023-01-30T20:27:04.122Z,61.53
2023-01-30T20:29:36.082Z,60.15
2023-01-30T20:32:08.069Z,64.50
2023-01-30T20:34:39.970Z,61.28
2023-01-30T20:37:14.145Z,54.83
2023-01-30T20:39:46.777Z,61.72
2023-01-30T20:42:19.840Z,59.17
2023-01-30T20:44:51.791Z,54.00
2023-01-30T20:47:23.782Z,59.72
2023-01-30T20:49:55.627Z,56.10
2023-01-30T20:52:29.531Z,56.97
2023-01-30T20:55:01.521Z,61.78
2023-01-30T20:57:33.525Z,56.17
2023-01-30T21:00:06.171Z,56.75
2023-01-30T21:03:07.600Z,66.80
2023-01-30T21:05:39.523Z,42.25
2023-01-30T21:08:12.542Z,53.40
2023-01-30T21:10:47.139Z,52.42
2023-01-30T21:13:19.416Z,54.78
2023-01-30T21:16:07.401Z,56.65
2023-01-30T21:18:41.402Z,70.47
2023-01-30T21:21:19.322Z,57.13
2023-01-30T21:23:53.862Z,56.33
2023-01-30T21:26:27.821Z,58.92
2023-01-30T21:29:03.819Z,62.45
2023-01-30T21:31:37.693Z,55.72
2023-01-30T21:34:10.887Z,52.70
2023-01-30T21:36:42.834Z,54.67
2023-01-30T21:39:33.181Z,55.63
2023-01-30T21:42:23.975Z,51.25
2023-01-30T21:45:05.720Z,58.67
2023-01-30T21:47:44.146Z,58.95
2023-01-30T21:50:17.193Z,58.92
2023-01-30T21:52:49.080Z,59.88
2023-01-30T21:55:21.286Z,62.40
2023-01-30T21:57:53.711Z,60.90
2023-01-30T22:00:25.497Z,55.17
2023-01-30T22:02:57.361Z,52.22
2023-01-30T22:05:36.487Z,60.65
2023-01-30T22:08:08.622Z,72.97
2023-01-30T22:10:40.440Z,74.60
2023-01-30T22:13:12.396Z,59.50
2023-01-30T22:15:55.492Z,58.45
2023-01-30T22:19:00.646Z,54.42
2023-01-30T22:21:36.200Z,54.88
2023-01-30T22:24:11.267Z,51.45
2023-01-30T22:26:43.193Z,56.10
2023-01-30T22:29:18.126Z,55.55
2023-01-30T22:31:50.109Z,57.72
2023-01-30T22:34:22.084Z,57.55
2023-01-30T22:36:54.343Z,60.70
2023-01-30T22:39:26.348Z,53.55
2023-01-30T22:41:58.240Z,54.45
2023-01-30T22:44:30.388Z,55.95
2023-01-30T22:47:02.316Z,57.17
2023-01-30T22:49:34.362Z,58.92
2023-01-30T22:52:06.224Z,60.58
2023-01-30T22:54:39.314Z,65.30
2023-01-30T22:57:11.275Z,60.17
2023-01-30T22:59:43.107Z,64.35
2023-01-30T23:02:15.033Z,67.22
2023-01-30T23:04:49.204Z,52.08
2023-01-30T23:07:23.102Z,59.03
2023-01-30T23:09:54.905Z,58.40
2023-01-30T23:12:45.312Z,61.35
2023-01-30T23:15:17.539Z,60.45
2023-01-30T23:18:08.027Z,64.30
2023-01-30T23:20:40.266Z,62.10
2023-01-30T23:23:12.147Z,64.75
2023-01-30T23:25:43.943Z,62.35
2023-01-30T23:28:16.016Z,63.33
2023-01-30T23:30:47.961Z,65.55
2023-01-30T23:33:19.851Z,59.15
2023-01-30T23:35:51.663Z,57.75
2023-01-30T23:38:24.100Z,60.92
2023-01-30T23:41:09.013Z,63.78
2023-01-30T23:43:42.366Z,61.83
2023-01-30T23:46:20.104Z,61.15
2023-01-30T23:48:56.959Z,58.85
2023-01-30T23:51:31.045Z,60.30
2023-01-30T23:54:04.119Z,62.00
2023-01-30T23:56:38.928Z,62.65
2023-01-30T23:59:11.621Z,64.95
